Ягодное

Карта отелей и гостиниц, располагающихся рядом с аэропортом Ягодное :

Ягодное Магаданская область 62° 32' 44.4012" N, 149° 31' 22.8612" E
Код аэродрома ИКАО
UHGE
Код аэродрома RU
УХГЕ
Координаты
N62.54567° E149.52302°
Превышение над уровнем моря
480
Основная полоса
14/32
Курс магнитный
136,8/316,8
Длина основной ВПП
700
Ширина основной ВПП
65
Покрытие основной ВПП
Нетвёрдое (гравий)
Освещение ВПП
Нет
Тип: 
Аэродром
Класс аэродрома: 
Принадлежность: 
ГА
Статус: 
Действующий
Сайт: 
E-mail аэродрома: 
Страна: 
Россия
Регион: 
Магаданская область
Город: 
Дополнительная информация: 
Горный. Оператор: Администрация поселка Ягодное Магаданской области. Построен с нуля, аэропорта здесь никогда не было. Первый технический рейс выполнил 25 мая 2012 самолет Ан-28 по маршруту Магадан - Ягодное - Магадан. ГВПП нормативно маркирована входными призмами и пос. буквой "Т".

Найти трансфер

С помощью этой формы Вы можете найти трансфер из аэропорта Ягодное в город, аэропорт или вокзал:

Карта места

Javascript is required to view this map.

Погода в аэропортах:

Авиационная погода в Оренбурге

Регион: 
Погода METAR: 
UWOO 051100Z 22005MPS 200V260 9999 TS SCT040CB 32/14 Q1009 R26/CLRD65 NOSIG RMK QFE746/0995
Время наблюдения
2021-08-05T11:00:00Z
Температура C
32.0
Точка росы
14.0
Направление ветра
220
Скорость ветра (узлы)
10
Метео видимость
6.21
Явления погоды
TS
Условия полета
VFR
Аэропорт подробнее: 

Авиационная погода в Москва - Внуково

Погода METAR: 
UUWW 051100Z 00000MPS 9999 -RA BKN026 19/15 Q1016 R06/290050 NOSIG
Время наблюдения
2021-08-05T11:00:00Z
Температура C
19.0
Точка росы
15.0
Направление ветра
0
Скорость ветра (узлы)
0
Метео видимость
6.21
Явления погоды
-RA
Условия полета
MVFR
Аэропорт подробнее: 

Авиационная погода в Братске

Регион: 
Погода METAR: 
UIBB 051100Z 32003MPS 1100 R30/1100N FU BKN018CB 20/15 Q1004 R30/CLRD60 NOSIG RMK QFE710/0947
Время наблюдения
2021-08-05T11:00:00Z
Температура C
20.0
Точка росы
15.0
Направление ветра
320
Скорость ветра (узлы)
6
Метео видимость
0.68
Явления погоды
FU
Условия полета
LIFR
Аэропорт подробнее: 

Авиационная погода в Магнитогорске

Погода METAR: 
USCM 051100Z 15003MPS 9999 TS BKN040CB 32/12 Q1009 R18/090060 TEMPO VRB21MPS 2000 TSRAGR SQ BKN007CB RMK QFE719
Время наблюдения
2021-08-05T11:00:00Z
Температура C
32.0
Точка росы
12.0
Направление ветра
150
Скорость ветра (узлы)
6
Метео видимость
6.21
Явления погоды
TS
Условия полета
VFR
Аэропорт подробнее: